Time;durP1;ratioP1;P1;durP2;ratioP2;P2;SDS_P1;SDS_P2;PMS_P1;PMS_P2;Temp;Humidity;BMP_temperature;BMP_pressure;BME280_temperature;BME280_humidity;BME280_pressure;Samples;Min_cycle;Max_cycle;Signal;HPM_P1;HPM_P2
2022/01/30 00:02:05;;;;;;;35.25;4.65;;;;;;;4.99;100.00;102369.03;5034874;28;20041;-71
2022/01/30 00:04:30;;;;;;;31.35;4.65;;;;;;;4.99;100.00;102371.63;5016857;28;20021;-72
2022/01/30 00:06:56;;;;;;;29.35;4.10;;;;;;;4.92;100.00;102364.94;5035103;28;20071;-72
2022/01/30 00:09:23;;;;;;;37.20;5.13;;;;;;;4.96;100.00;102363.91;5000939;28;20025;-71
2022/01/30 00:11:54;;;;;;;31.10;4.10;;;;;;;5.00;100.00;102368.13;5036796;28;20387;-71
2022/01/30 00:14:21;;;;;;;37.25;5.07;;;;;;;5.11;100.00;102380.78;5021058;28;20026;-71
2022/01/30 00:16:55;;;;;;;32.30;4.55;;;;;;;4.77;100.00;102359.38;5037231;28;20032;-71
2022/01/30 00:19:32;;;;;;;34.73;4.00;;;;;;;4.82;100.00;102377.53;5019620;28;20510;-70
2022/01/30 00:27:19;;;;;;;36.78;4.53;;;;;;;5.02;100.00;102395.09;4973269;28;20408;-70
2022/01/30 00:29:45;;;;;;;34.55;4.82;;;;;;;4.86;100.00;102373.88;4957387;28;20054;-71
2022/01/30 00:32:11;;;;;;;29.70;4.43;;;;;;;4.93;100.00;102396.31;4973508;28;20027;-71
2022/01/30 00:34:37;;;;;;;32.83;4.38;;;;;;;4.87;100.00;102378.19;4957659;28;20110;-71
2022/01/30 00:37:03;;;;;;;30.90;4.88;;;;;;;5.08;100.00;102401.84;4973433;28;20125;-70
2022/01/30 00:39:29;;;;;;;37.80;4.50;;;;;;;5.00;100.00;102392.53;4973952;28;20126;-71
2022/01/30 00:41:55;;;;;;;30.52;4.40;;;;;;;5.05;100.00;102383.66;4957515;28;20189;-71
2022/01/30 00:44:21;;;;;;;36.60;4.32;;;;;;;5.06;100.00;102391.44;4974188;28;20556;-71
2022/01/30 00:46:46;;;;;;;29.65;4.20;;;;;;;4.94;100.00;102382.28;4972924;28;20023;-71
2022/01/30 00:49:13;;;;;;;32.03;4.55;;;;;;;4.78;100.00;102365.47;4957062;28;20129;-70
2022/01/30 00:51:38;;;;;;;29.80;4.20;;;;;;;4.77;100.00;102358.53;4957041;28;20095;-71
2022/01/30 00:54:04;;;;;;;22.92;3.17;;;;;;;4.93;100.00;102383.22;4956963;28;20410;-71
2022/01/30 00:56:30;;;;;;;35.30;4.90;;;;;;;4.82;100.00;102356.59;4972691;28;20035;-71
2022/01/30 00:58:56;;;;;;;26.50;3.75;;;;;;;4.94;100.00;102392.75;4956130;28;20485;-72
2022/01/30 01:01:22;;;;;;;30.05;4.18;;;;;;;4.92;100.00;102407.66;4982666;28;20046;-71
2022/01/30 01:03:47;;;;;;;31.38;4.00;;;;;;;4.90;100.00;102387.69;5014074;28;20044;-71
2022/01/30 01:06:13;;;;;;;37.35;4.53;;;;;;;4.90;100.00;102390.31;4996378;28;20471;-71
2022/01/30 01:08:56;;;;;;;31.70;4.60;;;;;;;4.69;100.00;102377.13;5014025;28;20037;-71
2022/01/30 01:14:09;;;;;;;27.35;4.28;;;;;;;4.71;100.00;102392.78;4996376;28;20521;-71
2022/01/30 01:24:55;;;;;;;32.90;4.72;;;;;;;4.65;100.00;102392.97;4995765;28;20026;-71
2022/01/30 01:29:56;;;;;;;40.25;4.18;;;;;;;4.60;100.00;102391.38;5085195;23;20115;-70
2022/01/30 01:32:23;;;;;;;29.98;3.55;;;;;;;4.57;100.00;102403.75;5016513;28;20046;-71
2022/01/30 01:34:48;;;;;;;24.10;3.80;;;;;;;4.54;100.00;102399.47;5031851;28;20029;-70
2022/01/30 01:37:14;;;;;;;26.48;3.35;;;;;;;4.85;100.00;102408.81;5031173;28;20458;-69
2022/01/30 01:39:45;;;;;;;17.05;2.75;;;;;;;4.83;100.00;102413.25;5014299;28;20119;-69
2022/01/30 01:42:15;;;;;;;18.45;2.83;;;;;;;4.91;100.00;102413.81;5030983;28;20076;-71
2022/01/30 01:44:46;;;;;;;22.23;2.60;;;;;;;4.68;100.00;102411.19;5014522;28;20074;-71
2022/01/30 01:47:12;;;;;;;17.48;2.50;;;;;;;4.32;100.00;102368.00;5014329;28;20066;-71
2022/01/30 01:49:39;;;;;;;13.90;3.10;;;;;;;4.56;100.00;102413.31;5031209;28;20215;-71
2022/01/30 01:52:18;;;;;;;19.67;2.75;;;;;;;4.38;100.00;102387.81;5030951;28;20075;-71
2022/01/30 01:54:55;;;;;;;19.40;2.70;;;;;;;4.55;100.00;102405.56;5030795;28;20048;-71
2022/01/30 01:57:23;;;;;;;20.45;2.67;;;;;;;4.36;100.00;102379.19;5030789;28;20029;-70
2022/01/30 01:59:49;;;;;;;23.35;3.05;;;;;;;4.55;100.00;102411.63;5014845;28;20025;-71
2022/01/30 02:02:15;;;;;;;25.48;3.60;;;;;;;4.51;100.00;102401.34;5014948;28;20032;-70
2022/01/30 02:04:43;;;;;;;20.20;2.90;;;;;;;4.66;100.00;102413.03;5031819;28;20037;-70
2022/01/30 02:09:54;;;;;;;24.70;2.63;;;;;;;4.65;100.00;102404.28;5032836;28;20026;-71
2022/01/30 02:12:28;;;;;;;22.02;2.92;;;;;;;4.46;100.00;102391.03;5031297;28;20028;-71
2022/01/30 02:25:48;;;;;;;21.17;2.78;;;;;;;4.44;100.00;102432.09;5031675;28;20116;-70
2022/01/30 02:28:17;;;;;;;18.03;2.80;;;;;;;4.12;100.00;102400.06;5033220;28;20115;-71
2022/01/30 02:30:54;;;;;;;18.35;2.58;;;;;;;4.23;100.00;102414.53;5032048;28;20068;-71
2022/01/30 02:33:22;;;;;;;25.33;3.28;;;;;;;4.18;100.00;102404.25;5032105;28;20095;-71
2022/01/30 02:35:48;;;;;;;24.27;3.05;;;;;;;4.18;100.00;102415.56;5032580;28;20136;-71
2022/01/30 02:38:15;;;;;;;17.27;2.60;;;;;;;4.27;100.00;102431.81;5032761;28;20056;-71
2022/01/30 02:40:44;;;;;;;18.95;2.83;;;;;;;4.25;100.00;102431.88;5033646;28;20545;-71
2022/01/30 02:43:10;;;;;;;16.65;2.13;;;;;;;3.92;100.00;102410.34;5032116;28;20482;-71
2022/01/30 02:45:43;;;;;;;17.58;2.10;;;;;;;4.15;100.00;102422.63;5033461;28;20021;-71
2022/01/30 02:50:50;;;;;;;13.98;2.08;;;;;;;4.09;100.00;102418.47;5032658;28;20025;-71
2022/01/30 02:53:16;;;;;;;16.48;2.40;;;;;;;4.19;100.00;102427.69;5030667;28;20108;-71
2022/01/30 02:55:44;;;;;;;19.08;2.65;;;;;;;4.19;100.00;102424.25;5031496;28;20051;-71
2022/01/30 02:58:10;;;;;;;22.08;2.65;;;;;;;4.16;100.00;102429.59;5014157;28;20033;-71
2022/01/30 03:00:35;;;;;;;18.27;2.45;;;;;;;4.02;100.00;102419.59;5030531;28;20017;-71
2022/01/30 03:03:01;;;;;;;16.65;2.42;;;;;;;4.16;100.00;102440.03;5030278;28;20109;-71
2022/01/30 03:05:27;;;;;;;22.42;2.75;;;;;;;3.96;100.00;102402.34;5013873;28;20033;-71
2022/01/30 03:07:52;;;;;;;19.85;2.58;;;;;;;4.12;100.00;102441.03;5031611;28;20036;-71
2022/01/30 03:10:19;;;;;;;23.08;2.40;;;;;;;4.09;100.00;102436.78;5024496;28;20037;-70
2022/01/30 03:12:44;;;;;;;21.35;2.42;;;;;;;3.94;100.00;102429.44;5035131;28;20379;-70
2022/01/30 03:15:11;;;;;;;19.50;2.47;;;;;;;4.05;100.00;102443.00;5033830;28;20018;-71
2022/01/30 03:17:37;;;;;;;15.77;2.45;;;;;;;4.04;100.00;102445.66;5034255;28;20084;-72
2022/01/30 03:20:03;;;;;;;22.45;2.97;;;;;;;4.05;100.00;102440.41;5017799;28;20025;-71
2022/01/30 03:22:29;;;;;;;16.73;2.53;;;;;;;4.06;100.00;102451.69;5034343;28;20040;-70
2022/01/30 03:24:55;;;;;;;23.25;3.15;;;;;;;4.01;100.00;102436.16;5035485;28;20025;-71
2022/01/30 03:27:20;;;;;;;24.08;2.95;;;;;;;3.98;100.00;102439.75;5033917;28;20034;-70
2022/01/30 03:29:51;;;;;;;20.42;2.63;;;;;;;3.89;100.00;102413.91;5033588;28;20052;-71
2022/01/30 03:32:17;;;;;;;19.10;2.50;;;;;;;3.86;100.00;102414.03;5035013;28;20034;-70
2022/01/30 03:34:43;;;;;;;25.00;3.17;;;;;;;3.93;100.00;102436.44;5033833;28;20032;-71
2022/01/30 03:37:09;;;;;;;25.98;3.30;;;;;;;3.82;100.00;102425.47;5033850;28;20021;-70
2022/01/30 03:39:35;;;;;;;19.83;2.88;;;;;;;3.85;100.00;102419.28;5033674;28;20334;-71
2022/01/30 03:42:01;;;;;;;27.63;2.80;;;;;;;4.03;100.00;102438.75;5033545;28;20099;-70
2022/01/30 03:44:26;;;;;;;24.27;2.67;;;;;;;3.94;100.00;102443.34;5033973;28;20124;-70
2022/01/30 03:46:52;;;;;;;25.38;2.72;;;;;;;3.90;100.00;102428.66;5035312;28;20026;-70
2022/01/30 03:49:18;;;;;;;17.67;2.55;;;;;;;3.81;100.00;102438.56;5035382;28;20170;-70
2022/01/30 03:51:43;;;;;;;21.42;3.40;;;;;;;4.01;100.00;102451.00;5034639;28;20499;-71
2022/01/30 03:54:09;;;;;;;20.30;2.97;;;;;;;4.05;100.00;102456.06;5035476;28;20550;-71
2022/01/30 03:56:35;;;;;;;14.27;2.70;;;;;;;3.93;100.00;102423.38;5036183;28;20057;-70
2022/01/30 03:59:03;;;;;;;22.45;3.00;;;;;;;3.90;100.00;102431.28;5025697;28;20032;-70
2022/01/30 04:01:28;;;;;;;20.33;2.53;;;;;;;3.73;100.00;102415.31;5024776;28;20026;-71
2022/01/30 04:03:58;;;;;;;23.92;2.58;;;;;;;3.96;100.00;102435.47;5034569;28;20029;-70
2022/01/30 04:06:24;;;;;;;26.05;3.03;;;;;;;4.00;100.00;102454.50;5031105;28;20101;-71
2022/01/30 04:08:50;;;;;;;23.52;3.40;;;;;;;3.90;100.00;102444.34;5029723;28;20063;-71
2022/01/30 04:11:16;;;;;;;22.33;3.03;;;;;;;3.86;100.00;102424.47;5026043;28;20038;-70
2022/01/30 04:13:42;;;;;;;25.65;3.13;;;;;;;4.13;100.00;102463.66;5034992;28;20560;-72
2022/01/30 04:16:08;;;;;;;23.65;2.90;;;;;;;4.16;100.00;102467.03;5028928;28;20033;-71
2022/01/30 04:18:34;;;;;;;20.08;2.75;;;;;;;4.15;100.00;102459.22;5016388;28;20029;-69
2022/01/30 04:21:00;;;;;;;16.40;2.88;;;;;;;4.01;100.00;102437.94;5016141;28;20026;-70
2022/01/30 04:23:25;;;;;;;28.25;3.70;;;;;;;4.04;100.00;102464.81;5017853;28;20030;-70
2022/01/30 04:25:51;;;;;;;19.67;2.55;;;;;;;3.98;100.00;102463.25;5015916;28;20461;-69
2022/01/30 04:28:17;;;;;;;23.80;2.78;;;;;;;3.93;100.00;102459.97;5002214;28;20491;-70
2022/01/30 04:30:43;;;;;;;20.23;3.00;;;;;;;3.95;100.00;102481.69;5020334;28;20037;-70
2022/01/30 04:33:09;;;;;;;27.08;3.80;;;;;;;3.83;100.00;102473.34;5018878;28;20045;-71
2022/01/30 04:35:35;;;;;;;27.20;3.33;;;;;;;4.01;100.00;102469.31;5017062;28;20018;-71
2022/01/30 04:38:16;;;;;;;25.80;3.03;;;;;;;3.95;100.00;102473.84;4999972;28;20117;-71
2022/01/30 04:52:52;;;;;;;21.27;3.22;;;;;;;4.09;100.00;102488.22;5014305;28;20026;-72
2022/01/30 05:08:05;;;;;;;26.75;3.80;;;;;;;3.84;100.00;102469.81;5018683;28;20057;-69
2022/01/30 05:10:31;;;;;;;21.80;3.22;;;;;;;3.73;100.00;102505.00;5015524;28;20057;-71
2022/01/30 05:12:59;;;;;;;27.67;3.60;;;;;;;3.84;100.00;102499.44;5003868;28;20030;-72
2022/01/30 05:15:28;;;;;;;15.85;2.75;;;;;;;3.81;100.00;102498.69;4999909;28;20062;-72
2022/01/30 05:17:53;;;;;;;29.40;3.70;;;;;;;3.61;100.00;102481.88;5014098;28;20049;-69
2022/01/30 05:20:19;;;;;;;24.20;3.78;;;;;;;3.66;100.00;102471.28;5015192;28;20073;-70
2022/01/30 05:22:45;;;;;;;21.48;3.35;;;;;;;3.65;100.00;102506.13;4998166;28;20045;-71
2022/01/30 05:25:12;;;;;;;29.52;3.53;;;;;;;3.69;100.00;102510.38;5022573;28;20084;-69
2022/01/30 05:27:38;;;;;;;23.20;3.20;;;;;;;3.65;100.00;102496.53;5032683;28;20041;-71
2022/01/30 05:30:06;;;;;;;25.45;3.55;;;;;;;3.90;100.00;102503.63;5032909;28;20579;-70
2022/01/30 05:32:32;;;;;;;21.90;3.50;;;;;;;3.70;100.00;102489.44;5032429;28;20087;-70
2022/01/30 05:35:01;;;;;;;22.98;3.05;;;;;;;3.89;100.00;102535.91;5033726;28;20093;-71
2022/01/30 05:37:26;;;;;;;27.98;3.20;;;;;;;3.76;100.00;102522.34;5034235;28;20083;-70
2022/01/30 05:39:53;;;;;;;21.40;2.88;;;;;;;3.95;100.00;102539.19;5018280;28;20120;-71
2022/01/30 05:42:20;;;;;;;24.00;3.70;;;;;;;3.88;100.00;102537.63;5018021;28;20040;-71
2022/01/30 05:47:25;;;;;;;27.50;3.67;;;;;;;3.97;100.00;102553.06;5037351;28;20044;-69
2022/01/30 05:49:51;;;;;;;34.38;3.65;;;;;;;3.90;100.00;102561.97;5039792;28;20032;-70
2022/01/30 05:52:16;;;;;;;23.67;3.97;;;;;;;3.83;100.00;102541.31;5038184;28;20030;-70
2022/01/30 05:54:51;;;;;;;27.90;3.75;;;;;;;3.81;100.00;102551.78;5037706;28;20040;-70
2022/01/30 05:57:17;;;;;;;27.67;3.85;;;;;;;3.65;100.00;102556.63;5038790;28;20109;-70
2022/01/30 05:59:43;;;;;;;30.75;4.15;;;;;;;3.81;100.00;102571.84;5037517;28;20021;-71
2022/01/30 06:02:12;;;;;;;44.15;4.53;;;;;;;3.70;100.00;102551.25;5034405;28;20033;-70
2022/01/30 06:04:39;;;;;;;20.65;3.67;;;;;;;3.63;100.00;102565.41;5016933;28;20570;-71
2022/01/30 06:07:06;;;;;;;24.63;3.75;;;;;;;3.65;100.00;102572.31;5036598;28;20033;-71
2022/01/30 06:09:32;;;;;;;28.83;3.97;;;;;;;3.62;100.00;102569.78;5034023;28;20120;-71
2022/01/30 06:11:58;;;;;;;31.92;4.03;;;;;;;3.83;100.00;102576.13;5033993;28;20037;-71
2022/01/30 06:14:23;;;;;;;33.42;3.67;;;;;;;3.73;100.00;102559.03;5041648;28;20504;-71
2022/01/30 06:16:49;;;;;;;35.40;3.80;;;;;;;3.63;100.00;102550.59;5019845;28;20033;-77
2022/01/30 06:19:18;;;;;;;28.85;3.97;;;;;;;3.67;100.00;102574.88;4985817;28;20029;-71
2022/01/30 06:21:45;;;;;;;33.97;4.05;;;;;;;3.55;100.00;102552.59;5018255;28;20380;-71
2022/01/30 06:24:10;;;;;;;21.83;3.72;;;;;;;3.73;100.00;102572.09;5033877;28;20101;-70
2022/01/30 06:26:36;;;;;;;31.05;4.15;;;;;;;3.72;100.00;102586.91;5034775;28;20021;-71
2022/01/30 06:29:02;;;;;;;32.15;4.32;;;;;;;3.79;100.00;102595.41;5034477;28;20456;-70
2022/01/30 06:31:28;;;;;;;34.33;3.97;;;;;;;3.72;100.00;102594.75;5039622;28;20034;-71
2022/01/30 06:33:54;;;;;;;28.65;3.33;;;;;;;3.64;100.00;102609.78;5037909;28;20034;-70
2022/01/30 06:36:20;;;;;;;27.23;4.25;;;;;;;3.63;100.00;102613.28;5036964;28;20040;-70
2022/01/30 06:38:47;;;;;;;28.67;4.28;;;;;;;3.81;100.00;102611.91;5035480;28;20026;-71
2022/01/30 06:41:14;;;;;;;28.60;4.07;;;;;;;3.55;100.00;102597.00;5034974;28;20091;-70
2022/01/30 06:43:39;;;;;;;29.08;4.18;;;;;;;3.68;100.00;102623.59;5034192;28;20025;-70
2022/01/30 06:46:05;;;;;;;24.08;3.78;;;;;;;3.57;100.00;102610.88;5039066;28;20325;-71
2022/01/30 06:48:31;;;;;;;29.98;3.80;;;;;;;3.61;100.00;102591.59;5038205;28;20152;-71
2022/01/30 06:50:56;;;;;;;28.08;4.85;;;;;;;3.64;100.00;102596.72;5022395;28;20101;-70
2022/01/30 06:53:24;;;;;;;26.98;3.70;;;;;;;3.92;100.00;102630.72;5036964;28;20056;-71
2022/01/30 06:55:50;;;;;;;36.33;4.10;;;;;;;4.00;100.00;102630.53;5035553;28;20494;-71
2022/01/30 06:58:16;;;;;;;21.98;3.50;;;;;;;4.06;100.00;102632.09;5032140;28;20029;-71
2022/01/30 07:00:44;;;;;;;28.45;4.20;;;;;;;4.08;100.00;102640.72;5031155;28;20036;-74
2022/01/30 07:03:10;;;;;;;30.88;4.15;;;;;;;3.89;100.00;102598.63;5023828;28;20084;-72
2022/01/30 07:05:35;;;;;;;28.63;3.97;;;;;;;3.70;100.00;102559.97;5029208;28;20368;-70
2022/01/30 07:08:01;;;;;;;36.78;4.50;;;;;;;4.06;100.00;102632.09;5018396;28;20159;-71
2022/01/30 07:10:40;;;;;;;27.08;4.10;;;;;;;4.01;100.00;102620.91;5034349;28;20061;-71
2022/01/30 07:13:07;;;;;;;27.77;4.05;;;;;;;3.85;100.00;102630.97;5024591;28;20026;-70
2022/01/30 07:15:33;;;;;;;29.88;4.30;;;;;;;4.12;100.00;102655.44;5031339;28;20024;-70
2022/01/30 07:17:59;;;;;;;37.17;4.47;;;;;;;3.85;100.00;102641.44;5033729;28;20030;-71
2022/01/30 07:20:24;;;;;;;27.98;4.07;;;;;;;3.90;100.00;102647.38;5030448;28;20021;-71
2022/01/30 07:22:50;;;;;;;27.13;3.58;;;;;;;3.76;100.00;102635.56;5028687;28;20032;-71
2022/01/30 07:25:15;;;;;;;31.70;4.65;;;;;;;3.89;100.00;102661.34;5026239;28;20022;-70
2022/01/30 07:27:42;;;;;;;28.85;4.20;;;;;;;3.83;100.00;102670.22;5031552;28;20021;-70
2022/01/30 07:30:10;;;;;;;30.02;3.85;;;;;;;3.65;100.00;102632.38;5016470;28;20046;-71
2022/01/30 07:32:35;;;;;;;28.17;4.65;;;;;;;3.91;100.00;102651.72;5032937;28;20037;-73
2022/01/30 07:35:01;;;;;;;28.00;5.45;;;;;;;3.94;100.00;102669.91;5032138;28;20491;-73
2022/01/30 07:37:28;;;;;;;34.92;5.35;;;;;;;3.78;100.00;102648.59;5028236;28;20068;-70
2022/01/30 07:39:58;;;;;;;39.60;6.82;;;;;;;3.88;100.00;102675.28;5022379;28;20018;-74
2022/01/30 07:42:24;;;;;;;29.48;6.90;;;;;;;3.82;100.00;102639.75;5013692;28;20029;-75
2022/01/30 07:44:50;;;;;;;28.40;4.35;;;;;;;3.90;100.00;102666.50;5030091;28;20528;-71
2022/01/30 07:47:16;;;;;;;48.13;5.03;;;;;;;3.99;100.00;102668.00;5030389;28;20013;-71
2022/01/30 07:49:42;;;;;;;27.15;4.15;;;;;;;3.97;100.00;102672.41;5033610;28;20017;-71
2022/01/30 07:52:11;;;;;;;29.77;4.03;;;;;;;4.01;100.00;102670.59;5029799;28;20472;-72
2022/01/30 07:54:38;;;;;;;26.98;4.05;;;;;;;4.00;100.00;102655.78;5017392;28;20048;-71
2022/01/30 07:57:06;;;;;;;26.88;4.68;;;;;;;3.91;100.00;102651.72;5015740;28;20032;-73
2022/01/30 07:59:32;;;;;;;29.77;4.30;;;;;;;3.82;100.00;102620.63;5038421;28;20036;-72
2022/01/30 08:01:58;;;;;;;30.60;4.95;;;;;;;3.95;100.00;102687.28;5027158;28;20014;-73
2022/01/30 08:04:25;;;;;;;33.33;4.25;;;;;;;4.06;100.00;102674.75;5028129;28;20029;-72
2022/01/30 08:06:54;;;;;;;32.08;3.92;;;;;;;4.13;100.00;102675.44;5027334;28;20032;-71
2022/01/30 08:09:19;;;;;;;26.17;3.72;;;;;;;4.13;100.00;102678.94;5029620;28;20052;-72
2022/01/30 08:11:45;;;;;;;29.83;4.70;;;;;;;4.36;100.00;102677.34;5023619;28;20033;-72
2022/01/30 08:14:12;;;;;;;32.17;4.20;;;;;;;4.25;100.00;102679.47;5019455;28;20026;-71
2022/01/30 08:16:38;;;;;;;29.65;3.88;;;;;;;4.10;100.00;102652.00;5026574;28;20048;-74
2022/01/30 08:19:04;;;;;;;37.92;3.72;;;;;;;4.23;100.00;102679.50;5039974;28;20106;-72
2022/01/30 08:21:31;;;;;;;30.17;4.30;;;;;;;4.11;100.00;102669.38;5034548;28;20112;-72
2022/01/30 08:24:03;;;;;;;30.23;4.07;;;;;;;4.07;100.00;102678.25;5041448;28;20104;-78
2022/01/30 08:26:29;;;;;;;38.05;4.95;;;;;;;4.10;100.00;102665.09;5036293;28;20018;-70
2022/01/30 08:28:56;;;;;;;30.45;4.47;;;;;;;4.28;100.00;102688.06;5032867;28;20025;-74
2022/01/30 08:31:22;;;;;;;28.75;4.10;;;;;;;4.11;100.00;102667.66;5036084;28;20030;-71
2022/01/30 08:33:48;;;;;;;30.10;3.83;;;;;;;4.39;100.00;102699.06;5011713;28;20033;-74
2022/01/30 08:36:14;;;;;;;37.08;4.80;;;;;;;4.38;100.00;102686.00;5027214;28;20037;-75
2022/01/30 08:38:43;;;;;;;35.17;5.07;;;;;;;4.56;100.00;102711.59;5028884;28;20021;-77
2022/01/30 08:41:08;;;;;;;34.42;5.05;;;;;;;4.09;100.00;102658.16;5025727;28;20109;-71
2022/01/30 08:43:34;;;;;;;29.45;3.80;;;;;;;4.27;100.00;102667.16;5033053;28;20035;-71
2022/01/30 08:46:03;;;;;;;39.55;4.47;;;;;;;4.54;100.00;102686.38;5034501;28;20017;-71
2022/01/30 08:48:30;;;;;;;35.72;4.20;;;;;;;4.63;100.00;102700.94;5020751;28;20029;-71
2022/01/30 08:50:56;;;;;;;26.83;3.95;;;;;;;4.53;100.00;102684.69;5030129;28;20035;-71
2022/01/30 08:53:22;;;;;;;29.80;4.20;;;;;;;4.53;100.00;102690.78;5028070;28;20487;-70
2022/01/30 08:55:53;;;;;;;26.08;4.50;;;;;;;4.68;100.00;102689.44;5020138;28;20026;-71
2022/01/30 08:58:19;;;;;;;27.83;4.00;;;;;;;4.52;100.00;102662.91;5022692;28;20215;-71
2022/01/30 09:00:45;;;;;;;35.35;4.20;;;;;;;4.37;100.00;102647.69;5028351;28;20044;-72
2022/01/30 09:03:11;;;;;;;40.00;5.93;;;;;;;4.75;100.00;102696.19;5012618;28;20363;-71
2022/01/30 09:05:37;;;;;;;32.30;4.53;;;;;;;5.05;100.00;102700.47;5025823;28;20028;-73
2022/01/30 09:08:04;;;;;;;30.13;4.22;;;;;;;5.24;100.00;102688.47;5024963;28;20022;-72
2022/01/30 09:10:32;;;;;;;30.52;4.28;;;;;;;4.96;100.00;102693.78;5024084;28;20049;-72
2022/01/30 09:12:57;;;;;;;36.17;4.05;;;;;;;5.00;100.00;102703.25;5021037;28;20036;-71
2022/01/30 09:15:23;;;;;;;30.20;3.92;;;;;;;5.18;100.00;102710.50;5031723;28;20025;-72
2022/01/30 09:17:52;;;;;;;29.08;4.10;;;;;;;4.97;100.00;102685.88;5018211;28;20079;-71
2022/01/30 09:20:17;;;;;;;29.20;4.03;;;;;;;4.99;100.00;102712.00;5030109;28;20036;-74
2022/01/30 09:22:43;;;;;;;30.45;4.50;;;;;;;4.96;100.00;102718.19;5029677;28;20029;-72
2022/01/30 09:25:10;;;;;;;27.30;4.10;;;;;;;4.96;100.00;102710.34;5025189;28;20063;-73
2022/01/30 09:27:35;;;;;;;30.52;3.80;;;;;;;4.73;100.00;102718.09;5012605;28;20018;-73
2022/01/30 09:30:03;;;;;;;37.30;4.55;;;;;;;4.64;100.00;102689.59;5018142;28;20522;-73
2022/01/30 09:32:29;;;;;;;29.83;4.28;;;;;;;4.97;100.00;102738.25;5014493;28;20052;-79
2022/01/30 09:34:56;;;;;;;37.35;9.27;;;;;;;4.74;100.00;102686.63;5012098;28;20040;-73
2022/01/30 09:37:23;;;;;;;27.30;4.50;;;;;;;5.04;100.00;102741.50;4990954;28;20067;-70
2022/01/30 09:39:49;;;;;;;28.17;4.45;;;;;;;5.14;100.00;102695.78;5026828;28;20033;-72
2022/01/30 09:42:16;;;;;;;37.40;4.57;;;;;;;5.50;100.00;102739.97;5014955;28;20483;-70
2022/01/30 09:44:43;;;;;;;27.80;4.25;;;;;;;5.34;100.00;102742.25;5014366;28;20032;-68
2022/01/30 09:47:12;;;;;;;35.20;4.18;;;;;;;5.59;100.00;102739.66;5005186;28;20131;-69
2022/01/30 09:49:40;;;;;;;36.33;4.85;;;;;;;5.71;100.00;102735.75;5031470;28;20017;-68
2022/01/30 09:52:08;;;;;;;31.52;4.65;;;;;;;5.39;100.00;102740.34;5001031;28;20101;-74
2022/01/30 09:54:34;;;;;;;37.85;5.25;;;;;;;5.30;100.00;102761.59;5025283;28;20021;-71
2022/01/30 09:57:03;;;;;;;37.70;4.90;;;;;;;5.38;100.00;102746.50;5008922;28;20100;-71
2022/01/30 09:59:32;;;;;;;29.98;4.35;;;;;;;5.22;100.00;102748.78;5018205;28;20027;-72
2022/01/30 10:01:58;;;;;;;31.65;4.72;;;;;;;5.31;100.00;102731.88;5030334;28;20364;-74
2022/01/30 10:04:23;;;;;;;32.90;5.15;;;;;;;5.74;100.00;102721.66;5029088;28;20040;-72
2022/01/30 10:06:55;;;;;;;34.60;4.47;;;;;;;6.20;100.00;102759.34;4995511;28;20028;-74
2022/01/30 10:09:31;;;;;;;27.35;4.38;;;;;;;6.02;100.00;102750.41;4980936;28;20041;-75
2022/01/30 10:14:59;;;;;;;30.65;4.80;;;;;;;6.38;100.00;102771.81;5012964;28;20030;-71
2022/01/30 10:17:28;;;;;;;28.58;4.93;;;;;;;6.14;100.00;102770.09;5014273;28;20021;-71
2022/01/30 10:20:06;;;;;;;34.03;4.72;;;;;;;5.86;100.00;102765.81;5017398;28;20463;-72
2022/01/30 10:22:36;;;;;;;30.80;4.18;;;;;;;5.77;100.00;102776.63;5036219;28;20116;-73
2022/01/30 10:25:02;;;;;;;30.08;4.50;;;;;;;5.51;100.00;102762.63;5002033;28;20018;-72
2022/01/30 10:27:29;;;;;;;32.88;4.63;;;;;;;5.62;100.00;102770.13;5018501;28;20032;-73
2022/01/30 10:30:21;;;;;;;35.75;4.28;;;;;;;5.55;100.00;102777.34;5011767;28;20187;-73
2022/01/30 10:32:55;;;;;;;29.40;4.93;;;;;;;5.41;100.00;102750.78;5028246;28;20033;-72
2022/01/30 10:35:22;;;;;;;30.42;4.53;;;;;;;5.57;100.00;102715.25;5033773;28;20030;-72
2022/01/30 10:37:48;;;;;;;34.25;4.88;;;;;;;5.54;100.00;102740.72;5015898;28;20063;-73
2022/01/30 10:40:19;;;;;;;37.92;4.75;;;;;;;6.06;100.00;102752.88;5019803;28;20022;-71
2022/01/30 10:42:56;;;;;;;37.13;4.72;;;;;;;6.09;100.00;102745.78;5035464;28;20025;-79
2022/01/30 10:46:02;;;;;;;37.17;4.80;;;;;;;6.22;100.00;102719.06;5036581;28;20049;-79
2022/01/30 10:49:09;;;;;;;29.33;5.45;;;;;;;5.99;100.00;102726.91;5016552;28;20038;-74
2022/01/30 10:51:42;;;;;;;30.63;4.97;;;;;;;5.90;100.00;102727.22;5016217;28;20096;-80
2022/01/30 10:54:12;;;;;;;36.05;4.65;;;;;;;5.58;100.00;102714.34;5017168;28;20041;-73
2022/01/30 10:56:39;;;;;;;30.67;5.55;;;;;;;6.32;100.00;102766.78;5000868;28;20045;-74
2022/01/30 10:59:09;;;;;;;29.92;4.40;;;;;;;6.47;100.00;102746.94;5015090;28;20026;-75
2022/01/30 11:01:36;;;;;;;48.30;8.68;;;;;;;6.31;100.00;102741.44;4999553;28;20030;-73
2022/01/30 11:04:01;;;;;;;34.20;5.32;;;;;;;6.94;100.00;102767.88;5023226;28;20025;-78
2022/01/30 11:06:29;;;;;;;40.08;8.55;;;;;;;6.72;100.00;102767.00;5018717;28;20026;-74
2022/01/30 11:09:11;;;;;;;30.42;5.25;;;;;;;6.41;100.00;102784.81;5035602;28;20017;-73
2022/01/30 11:11:46;;;;;;;34.03;4.88;;;;;;;6.23;100.00;102788.97;5042437;28;20041;-72
2022/01/30 11:17:02;;;;;;;31.52;5.30;;;;;;;6.60;100.00;102784.09;5026354;28;20593;-74
2022/01/30 11:19:29;;;;;;;36.65;5.10;;;;;;;7.10;100.00;102786.50;5016929;28;20025;-73
2022/01/30 11:22:00;;;;;;;33.20;4.80;;;;;;;7.10;100.00;102783.88;5014679;28;20022;-74
2022/01/30 11:24:27;;;;;;;32.88;5.10;;;;;;;6.92;100.00;102784.59;5014609;28;20026;-73
2022/01/30 11:26:53;;;;;;;42.10;6.18;;;;;;;6.57;100.00;102766.69;5014888;28;20440;-75
2022/01/30 11:29:20;;;;;;;38.33;5.53;;;;;;;6.76;100.00;102735.31;5013591;28;20137;-73
2022/01/30 11:31:48;;;;;;;35.25;4.93;;;;;;;7.02;100.00;102772.84;4979337;28;20049;-74
2022/01/30 11:34:14;;;;;;;35.78;4.80;;;;;;;7.19;100.00;102744.06;4996068;28;20057;-74
2022/01/30 11:36:44;;;;;;;30.73;4.50;;;;;;;6.90;100.00;102751.41;5013547;28;20456;-73
2022/01/30 11:39:20;;;;;;;35.22;4.55;;;;;;;7.10;100.00;102716.41;4996290;28;20030;-75
2022/01/30 11:42:05;;;;;;;36.47;4.82;;;;;;;6.74;100.00;102758.16;5015180;28;20804;-74
2022/01/30 11:44:30;;;;;;;36.00;4.63;;;;;;;6.80;100.00;102722.94;5015275;28;20463;-74
2022/01/30 11:46:56;;;;;;;35.22;4.80;;;;;;;7.03;100.00;102756.13;5015273;28;20121;-73
2022/01/30 11:49:23;;;;;;;32.13;4.55;;;;;;;7.37;100.00;102744.22;5015413;28;20448;-73
2022/01/30 11:51:54;;;;;;;33.40;4.53;;;;;;;7.90;100.00;102746.28;4997133;28;20030;-74
2022/01/30 11:54:48;;;;;;;34.30;4.50;;;;;;;8.82;100.00;102746.47;5015379;28;20026;-72
2022/01/30 11:57:20;;;;;;;29.65;4.18;;;;;;;9.79;97.88;102750.38;5015470;28;20057;-73
2022/01/30 11:59:47;;;;;;;28.05;4.45;;;;;;;9.68;96.78;102727.19;5015204;28;20037;-73
2022/01/30 12:02:30;;;;;;;31.48;4.65;;;;;;;8.70;100.00;102735.63;4997354;28;20121;-74
2022/01/30 12:05:02;;;;;;;32.00;4.95;;;;;;;8.10;100.00;102751.50;5014675;28;20495;-73
2022/01/30 12:07:36;;;;;;;36.28;4.85;;;;;;;8.36;100.00;102754.75;4981269;28;20064;-74
2022/01/30 12:10:20;;;;;;;31.23;4.70;;;;;;;8.04;100.00;102762.34;5014594;28;20092;-74
2022/01/30 12:12:59;;;;;;;31.63;5.43;;;;;;;7.41;100.00;102751.06;5001868;28;20080;-73
2022/01/30 12:15:44;;;;;;;36.10;5.30;;;;;;;7.92;100.00;102745.31;5002407;28;20084;-74
2022/01/30 12:18:12;;;;;;;38.30;4.93;;;;;;;7.43;100.00;102687.00;5014524;28;20034;-73
2022/01/30 12:20:56;;;;;;;30.60;3.67;;;;;;;8.38;100.00;102745.00;5014832;28;20037;-73
2022/01/30 12:23:27;;;;;;;32.07;4.87;;;;;;;11.14;85.59;102735.00;4996773;28;20032;-74
2022/01/30 12:26:16;;;;;;;24.73;4.15;;;;;;;12.16;67.86;102707.69;4980285;28;20475;-73
2022/01/30 12:28:50;;;;;;;21.38;4.28;;;;;;;12.14;61.77;102691.06;5014217;28;20108;-73
2022/01/30 12:31:26;;;;;;;26.70;4.77;;;;;;;11.84;63.11;102714.03;4996526;28;20038;-73